createdAt,value
2022-12-09T00:04:02.366Z,49.50
2022-12-09T00:09:07.515Z,49.50
2022-12-09T00:14:12.547Z,49.60
2022-12-09T00:19:15.927Z,49.60
2022-12-09T00:24:20.864Z,49.60
2022-12-09T00:29:24.156Z,49.60
2022-12-09T00:34:27.524Z,49.60
2022-12-09T00:39:32.255Z,49.60
2022-12-09T00:44:35.689Z,49.60
2022-12-09T00:49:39.450Z,49.60
2022-12-09T00:54:44.318Z,49.60
2022-12-09T00:59:47.703Z,49.70
2022-12-09T01:04:52.691Z,49.70
2022-12-09T01:09:57.722Z,49.80
2022-12-09T01:15:01.252Z,49.80
2022-12-09T01:20:05.548Z,49.80
2022-12-09T01:25:11.112Z,49.70
2022-12-09T01:30:15.950Z,49.90
2022-12-09T01:35:19.436Z,49.80
2022-12-09T01:40:24.313Z,49.70
2022-12-09T01:45:44.212Z,49.70
2022-12-09T01:50:53.524Z,49.70
2022-12-09T01:56:03.612Z,49.60
2022-12-09T02:01:08.495Z,49.70
2022-12-09T02:06:13.456Z,49.60
2022-12-09T02:11:30.127Z,49.50
2022-12-09T02:16:42.055Z,49.50
2022-12-09T02:21:54.997Z,49.50
2022-12-09T02:27:05.612Z,49.50
2022-12-09T02:32:39.172Z,49.40
2022-12-09T02:37:55.897Z,49.30
2022-12-09T02:43:03.363Z,49.40
2022-12-09T02:48:09.482Z,49.30
2022-12-09T02:53:15.879Z,49.30
2022-12-09T02:58:20.318Z,49.30
2022-12-09T03:03:24.478Z,49.30
2022-12-09T03:08:38.920Z,49.30
2022-12-09T03:13:50.631Z,49.50
2022-12-09T03:19:00.783Z,49.60
2022-12-09T03:24:09.781Z,49.60
2022-12-09T03:29:18.309Z,49.70
2022-12-09T03:34:26.860Z,49.70
2022-12-09T03:39:36.469Z,49.80
2022-12-09T03:44:43.857Z,50.00
2022-12-09T03:49:47.220Z,49.90
2022-12-09T03:54:56.756Z,49.80
2022-12-09T04:00:02.874Z,49.90
2022-12-09T04:05:16.158Z,49.90
2022-12-09T04:10:21.178Z,49.80
2022-12-09T04:15:24.452Z,49.80
2022-12-09T04:20:27.989Z,49.70
2022-12-09T04:25:32.830Z,49.70
2022-12-09T04:30:36.656Z,49.70
2022-12-09T04:35:40.042Z,49.70
2022-12-09T04:40:44.849Z,49.60
2022-12-09T04:45:48.538Z,49.60
2022-12-09T04:50:52.516Z,49.50
2022-12-09T04:56:02.386Z,49.60
2022-12-09T05:01:08.175Z,49.60
2022-12-09T05:06:14.194Z,49.60
2022-12-09T05:11:20.053Z,49.50
2022-12-09T05:16:24.318Z,49.60
2022-12-09T05:21:28.102Z,49.50
2022-12-09T05:26:32.857Z,49.50
2022-12-09T05:31:36.548Z,49.50
2022-12-09T05:36:40.548Z,49.40
2022-12-09T05:41:47.311Z,49.40
2022-12-09T05:46:50.759Z,49.40
2022-12-09T05:51:55.404Z,49.40
2022-12-09T05:57:01.446Z,49.40
2022-12-09T06:02:09.736Z,49.50
2022-12-09T06:07:14.143Z,49.50
2022-12-09T06:12:19.313Z,49.50
2022-12-09T06:17:22.940Z,49.50
2022-12-09T06:22:26.426Z,49.50
2022-12-09T06:27:31.424Z,49.50
2022-12-09T06:32:35.168Z,49.50
2022-12-09T06:37:38.658Z,49.50
2022-12-09T06:42:43.332Z,49.70
2022-12-09T06:47:47.393Z,49.60
2022-12-09T06:52:50.878Z,49.50
2022-12-09T06:57:55.746Z,49.50
2022-12-09T07:02:59.462Z,49.50
2022-12-09T07:08:03.690Z,49.40
2022-12-09T07:13:08.604Z,49.40
2022-12-09T07:18:12.100Z,49.40
2022-12-09T07:23:16.625Z,49.40
2022-12-09T07:28:21.586Z,49.40
2022-12-09T07:33:25.017Z,49.40
2022-12-09T07:38:28.654Z,49.40
2022-12-09T07:43:34.214Z,49.40
2022-12-09T07:48:37.638Z,49.40
2022-12-09T07:53:41.926Z,49.40
2022-12-09T07:58:48.941Z,49.40
2022-12-09T08:03:53.359Z,49.40
2022-12-09T08:08:59.641Z,49.50
2022-12-09T08:14:12.198Z,49.50
2022-12-09T08:19:16.945Z,49.50
2022-12-09T08:24:21.103Z,49.50
2022-12-09T08:29:25.922Z,49.50
2022-12-09T08:34:29.589Z,50.20
2022-12-09T08:39:33.779Z,49.60
2022-12-09T08:44:39.409Z,49.60
2022-12-09T08:49:42.965Z,51.40
2022-12-09T08:54:46.894Z,50.80
2022-12-09T08:59:51.864Z,50.40
2022-12-09T09:04:55.676Z,50.90
2022-12-09T09:10:01.482Z,50.50
2022-12-09T09:15:08.970Z,50.30
2022-12-09T09:20:13.546Z,50.10
2022-12-09T09:25:17.696Z,50.00
2022-12-09T09:30:22.731Z,50.00
2022-12-09T09:35:26.616Z,50.00
2022-12-09T09:40:31.128Z,50.00
2022-12-09T09:45:36.168Z,50.20
2022-12-09T09:50:45.562Z,50.20
2022-12-09T09:55:54.024Z,50.30
2022-12-09T10:01:04.257Z,50.30
2022-12-09T10:06:16.817Z,50.50
2022-12-09T10:11:28.144Z,50.60
2022-12-09T10:16:42.453Z,50.60
2022-12-09T10:21:47.469Z,50.70
2022-12-09T10:27:00.837Z,50.60
2022-12-09T10:32:05.933Z,50.80
2022-12-09T10:37:23.733Z,50.60
2022-12-09T10:42:45.561Z,51.40
2022-12-09T10:47:53.941Z,51.10
2022-12-09T10:52:58.626Z,51.10
2022-12-09T10:58:13.216Z,50.90
2022-12-09T11:03:29.724Z,51.20
2022-12-09T11:08:33.662Z,51.10
2022-12-09T11:13:43.341Z,50.90
2022-12-09T11:18:49.376Z,51.10
2022-12-09T11:24:02.585Z,51.00
2022-12-09T11:29:15.864Z,51.00
2022-12-09T11:34:24.233Z,51.00
2022-12-09T11:39:30.192Z,51.10
2022-12-09T11:44:35.174Z,51.00
2022-12-09T11:49:49.513Z,51.10
2022-12-09T11:54:58.982Z,53.60
2022-12-09T12:00:06.921Z,52.20
2022-12-09T12:05:22.468Z,53.10
2022-12-09T12:10:30.674Z,52.00
2022-12-09T12:15:41.934Z,51.60
2022-12-09T12:21:13.599Z,51.50
2022-12-09T12:26:23.114Z,51.30
2022-12-09T12:31:43.735Z,51.20
2022-12-09T12:37:08.031Z,51.20
2022-12-09T12:42:24.010Z,51.30
2022-12-09T12:47:34.771Z,51.20
2022-12-09T12:52:57.347Z,51.20
2022-12-09T12:58:11.344Z,51.40
2022-12-09T13:03:23.313Z,53.00
2022-12-09T13:08:36.173Z,52.40
2022-12-09T13:13:45.754Z,52.10
2022-12-09T13:18:50.352Z,51.90
2022-12-09T13:24:04.258Z,51.60
2022-12-09T13:29:17.631Z,51.80
2022-12-09T13:34:30.213Z,51.70
2022-12-09T13:39:58.350Z,51.80
2022-12-09T13:45:07.462Z,52.00
2022-12-09T13:50:25.779Z,51.80
2022-12-09T13:55:49.011Z,52.00
2022-12-09T14:01:07.896Z,52.20
2022-12-09T14:06:23.099Z,52.10
2022-12-09T14:11:48.708Z,52.30
2022-12-09T14:16:53.232Z,52.40
2022-12-09T14:22:29.943Z,51.90
2022-12-09T14:27:34.677Z,52.40
2022-12-09T14:32:54.405Z,52.00
2022-12-09T14:38:18.471Z,52.10
2022-12-09T14:43:53.011Z,52.70
2022-12-09T14:48:59.392Z,52.70
2022-12-09T14:54:05.946Z,53.00
2022-12-09T14:59:18.828Z,52.30
2022-12-09T15:04:30.719Z,52.40
2022-12-09T15:09:34.327Z,52.30
2022-12-09T15:14:40.353Z,52.80
2022-12-09T15:20:00.453Z,52.80
2022-12-09T15:25:05.113Z,52.60
2022-12-09T15:30:28.781Z,52.50
2022-12-09T15:35:34.480Z,53.00
2022-12-09T15:40:59.755Z,52.60
2022-12-09T15:46:05.977Z,52.50
2022-12-09T15:51:17.279Z,52.50
2022-12-09T15:56:27.148Z,52.60
2022-12-09T16:01:37.210Z,52.60
2022-12-09T16:06:41.703Z,52.60
2022-12-09T16:11:48.542Z,52.50
2022-12-09T16:16:58.915Z,52.70
2022-12-09T16:22:07.238Z,52.90
2022-12-09T16:27:18.282Z,52.70
2022-12-09T16:32:28.171Z,52.90
2022-12-09T16:37:40.009Z,52.90
2022-12-09T16:42:45.673Z,53.10
2022-12-09T16:47:55.633Z,52.70
2022-12-09T16:53:02.048Z,53.10
2022-12-09T16:58:06.960Z,53.00
2022-12-09T17:03:21.710Z,53.30
2022-12-09T17:08:26.454Z,53.60
2022-12-09T17:13:30.388Z,53.20
2022-12-09T17:18:38.069Z,53.20
2022-12-09T17:23:43.795Z,53.20
2022-12-09T17:28:50.480Z,53.00
2022-12-09T17:33:59.814Z,53.10
2022-12-09T17:39:07.166Z,53.30
2022-12-09T17:44:12.151Z,53.30
2022-12-09T17:49:19.053Z,53.20
2022-12-09T17:54:24.270Z,53.30
2022-12-09T17:59:29.687Z,53.10
2022-12-09T18:04:34.844Z,53.10
2022-12-09T18:09:40.579Z,53.20
2022-12-09T18:14:44.127Z,53.20
2022-12-09T18:19:49.670Z,53.30
2022-12-09T18:24:53.227Z,53.50
2022-12-09T18:29:58.500Z,53.20
2022-12-09T18:35:07.460Z,53.40
2022-12-09T18:40:13.018Z,53.70
2022-12-09T18:45:17.998Z,53.70
2022-12-09T18:50:23.354Z,53.60
2022-12-09T18:55:27.899Z,53.60
2022-12-09T19:00:32.956Z,55.70
2022-12-09T19:05:44.163Z,54.80
2022-12-09T19:10:56.409Z,54.40
2022-12-09T19:16:06.272Z,54.30
2022-12-09T19:21:18.541Z,54.10
2022-12-09T19:26:26.889Z,54.00
2022-12-09T19:31:34.382Z,53.70
2022-12-09T19:36:42.623Z,54.10
2022-12-09T19:41:48.320Z,54.00
2022-12-09T19:46:54.714Z,53.80
2022-12-09T19:52:06.658Z,53.70
2022-12-09T19:57:10.865Z,53.90
2022-12-09T20:02:17.417Z,53.60
2022-12-09T20:07:23.665Z,55.10
2022-12-09T20:12:32.161Z,54.70
2022-12-09T20:17:37.570Z,54.30
2022-12-09T20:22:45.247Z,54.00
2022-12-09T20:27:49.612Z,53.90
2022-12-09T20:32:54.834Z,53.70
2022-12-09T20:38:01.491Z,53.60
2022-12-09T20:43:13.018Z,53.60
2022-12-09T20:48:18.032Z,54.40
2022-12-09T20:53:25.662Z,54.10
2022-12-09T20:58:30.073Z,54.70
2022-12-09T21:03:34.652Z,54.70
2022-12-09T21:08:41.257Z,54.80
2022-12-09T21:13:47.762Z,55.30
2022-12-09T21:18:54.768Z,54.60
2022-12-09T21:24:04.063Z,54.10
2022-12-09T21:29:10.650Z,53.90
2022-12-09T21:34:14.838Z,53.50
2022-12-09T21:39:20.688Z,53.30
2022-12-09T21:44:25.864Z,53.10
2022-12-09T21:49:30.897Z,53.00
2022-12-09T21:54:35.882Z,53.10
2022-12-09T21:59:39.391Z,53.10
2022-12-09T22:04:43.445Z,53.10
2022-12-09T22:09:50.933Z,53.00
2022-12-09T22:14:55.962Z,52.90
2022-12-09T22:20:33.336Z,52.90
2022-12-09T22:25:24.598Z,53.00
2022-12-09T22:30:28.173Z,53.00
2022-12-09T22:35:31.546Z,52.90
2022-12-09T22:40:37.089Z,53.00
2022-12-09T22:45:40.385Z,53.00
2022-12-09T22:50:43.768Z,53.20
2022-12-09T22:55:49.298Z,53.20
2022-12-09T23:00:52.855Z,53.20
2022-12-09T23:05:56.222Z,53.10
2022-12-09T23:11:03.576Z,53.20
2022-12-09T23:16:09.350Z,53.30
2022-12-09T23:21:14.758Z,53.30
2022-12-09T23:26:21.065Z,53.30
2022-12-09T23:31:26.451Z,53.30
2022-12-09T23:36:32.065Z,53.40
2022-12-09T23:41:37.480Z,53.50
2022-12-09T23:46:41.174Z,53.50
2022-12-09T23:51:44.970Z,53.40
2022-12-09T23:56:50.899Z,53.40
